Time;durP1;ratioP1;P1;durP2;ratioP2;P2;SDS_P1;SDS_P2;PMS_P1;PMS_P2;Temp;Humidity;BMP_temperature;BMP_pressure;BME280_temperature;BME280_humidity;BME280_pressure;Samples;Min_cycle;Max_cycle;Signal;HPM_P1;HPM_P2
2023/07/11 00:00:45;;;;;;;4.95;1.80;;;;;;;;;;5125038;27;20047;-64
2023/07/11 00:03:12;;;;;;;4.30;1.85;;;;;;;;;;5125474;27;20048;-64
2023/07/11 00:05:38;;;;;;;5.28;1.88;;;;;;;;;;5124841;27;20051;-62
2023/07/11 00:08:05;;;;;;;8.55;2.20;;;;;;;;;;5125923;27;20043;-65
2023/07/11 00:10:31;;;;;;;2.05;1.30;;;;;;;;;;5124506;27;20052;-65
2023/07/11 00:12:58;;;;;;;4.55;1.90;;;;;;;;;;5124437;27;20048;-64
2023/07/11 00:15:24;;;;;;;4.15;1.88;;;;;;;;;;5125770;27;20129;-63
2023/07/11 00:17:51;;;;;;;4.43;1.83;;;;;;;;;;5126321;27;20048;-63
2023/07/11 00:20:18;;;;;;;4.32;2.20;;;;;;;;;;5124738;27;20055;-65
2023/07/11 00:22:45;;;;;;;3.92;1.80;;;;;;;;;;5124785;27;20097;-65
2023/07/11 00:25:12;;;;;;;2.97;1.73;;;;;;;;;;5124369;27;20057;-65
2023/07/11 00:27:39;;;;;;;2.65;1.50;;;;;;;;;;5125127;27;20087;-64
2023/07/11 00:30:06;;;;;;;5.30;1.80;;;;;;;;;;5124760;27;20082;-65
2023/07/11 00:32:33;;;;;;;3.50;1.55;;;;;;;;;;5125384;27;20560;-63
2023/07/11 00:34:59;;;;;;;2.05;1.60;;;;;;;;;;5124651;27;20417;-64
2023/07/11 00:37:26;;;;;;;5.80;2.00;;;;;;;;;;5124056;27;20055;-64
2023/07/11 00:39:52;;;;;;;4.78;1.63;;;;;;;;;;5124160;27;20513;-63
2023/07/11 00:42:19;;;;;;;4.95;1.50;;;;;;;;;;5124241;27;20089;-65
2023/07/11 00:44:53;;;;;;;2.70;1.70;;;;;;;;;;5123758;27;20574;-65
2023/07/11 00:47:20;;;;;;;4.43;1.58;;;;;;;;;;5110570;27;20087;-66
2023/07/11 00:49:48;;;;;;;6.63;2.00;;;;;;;;;;5123563;27;20090;-65
2023/07/11 00:52:15;;;;;;;4.95;1.65;;;;;;;;;;5124990;27;20083;-63
2023/07/11 00:54:42;;;;;;;2.72;1.50;;;;;;;;;;5124167;27;20094;-65
2023/07/11 00:57:09;;;;;;;12.13;2.08;;;;;;;;;;5124669;27;20557;-65
2023/07/11 00:59:37;;;;;;;4.20;2.08;;;;;;;;;;5124094;27;20437;-63
2023/07/11 01:02:07;;;;;;;6.90;1.77;;;;;;;;;;5102404;27;20106;-62
2023/07/11 01:04:34;;;;;;;2.80;1.60;;;;;;;;;;5119999;27;20058;-65
2023/07/11 01:07:02;;;;;;;5.45;1.90;;;;;;;;;;5124043;27;20047;-63
2023/07/11 01:09:28;;;;;;;5.47;1.80;;;;;;;;;;5112308;27;20055;-65
2023/07/11 01:11:57;;;;;;;3.42;1.60;;;;;;;;;;5123089;27;21544;-65
2023/07/11 01:14:24;;;;;;;4.35;2.20;;;;;;;;;;5123494;27;20051;-63
2023/07/11 01:16:51;;;;;;;8.82;1.88;;;;;;;;;;5123980;27;20052;-62
2023/07/11 01:19:17;;;;;;;2.25;1.73;;;;;;;;;;5124038;27;20056;-66
2023/07/11 01:21:44;;;;;;;7.30;2.20;;;;;;;;;;5124357;27;20121;-64
2023/07/11 01:24:11;;;;;;;6.88;2.28;;;;;;;;;;5123522;27;20138;-65
2023/07/11 01:26:37;;;;;;;9.52;2.70;;;;;;;;;;5124182;27;20603;-64
2023/07/11 01:29:04;;;;;;;3.35;2.13;;;;;;;;;;5108069;27;20060;-64
2023/07/11 01:31:33;;;;;;;3.10;2.17;;;;;;;;;;5124566;27;20109;-66
2023/07/11 01:34:00;;;;;;;4.15;2.28;;;;;;;;;;5123650;27;20521;-63
2023/07/11 01:36:27;;;;;;;4.32;2.30;;;;;;;;;;5125144;27;20142;-65
2023/07/11 01:38:54;;;;;;;7.95;2.85;;;;;;;;;;5124660;27;20121;-65
2023/07/11 01:41:20;;;;;;;8.98;2.80;;;;;;;;;;5122310;27;20595;-66
2023/07/11 01:43:47;;;;;;;4.32;2.88;;;;;;;;;;5123979;27;20138;-65
2023/07/11 01:46:13;;;;;;;5.45;2.78;;;;;;;;;;5121933;27;20047;-63
2023/07/11 01:48:39;;;;;;;4.22;2.78;;;;;;;;;;5111957;27;20429;-64
2023/07/11 01:51:06;;;;;;;6.63;2.70;;;;;;;;;;5124540;27;20056;-65
2023/07/11 01:53:32;;;;;;;7.40;2.60;;;;;;;;;;5123556;27;20604;-62
2023/07/11 01:56:01;;;;;;;6.55;2.83;;;;;;;;;;5123495;27;20133;-62
2023/07/11 01:58:30;;;;;;;3.63;2.38;;;;;;;;;;5096636;27;20072;-65
2023/07/11 02:00:57;;;;;;;5.10;2.60;;;;;;;;;;5121086;27;20430;-65
2023/07/11 02:03:24;;;;;;;4.82;2.53;;;;;;;;;;5123655;27;20059;-65
2023/07/11 02:05:50;;;;;;;4.10;2.75;;;;;;;;;;5123359;27;20051;-64
2023/07/11 02:08:17;;;;;;;6.00;2.67;;;;;;;;;;5123464;27;20078;-63
2023/07/11 02:10:43;;;;;;;5.97;3.08;;;;;;;;;;5124370;27;20535;-64
2023/07/11 02:13:10;;;;;;;5.72;3.25;;;;;;;;;;5123011;27;20048;-65
2023/07/11 02:15:36;;;;;;;5.47;2.75;;;;;;;;;;5114903;27;20054;-65
2023/07/11 02:18:03;;;;;;;4.85;2.30;;;;;;;;;;5124697;27;20138;-64
2023/07/11 02:20:29;;;;;;;5.28;2.55;;;;;;;;;;5124303;27;20398;-67
2023/07/11 02:22:59;;;;;;;5.05;2.83;;;;;;;;;;5122979;27;20055;-65
2023/07/11 02:25:26;;;;;;;4.68;2.13;;;;;;;;;;5122470;27;20630;-62
2023/07/11 02:27:52;;;;;;;3.10;2.08;;;;;;;;;;5123222;27;20638;-63
2023/07/11 02:30:19;;;;;;;4.90;2.05;;;;;;;;;;5123586;27;20613;-66
2023/07/11 02:32:45;;;;;;;12.70;2.63;;;;;;;;;;5123022;27;20074;-65
2023/07/11 02:35:11;;;;;;;3.95;2.20;;;;;;;;;;5122418;27;20062;-63
2023/07/11 02:37:38;;;;;;;3.58;2.08;;;;;;;;;;5123078;27;20074;-65
2023/07/11 02:40:05;;;;;;;5.40;2.38;;;;;;;;;;5123173;27;20058;-65
2023/07/11 02:42:32;;;;;;;4.57;2.55;;;;;;;;;;5122727;27;20581;-63
2023/07/11 02:44:58;;;;;;;4.13;2.00;;;;;;;;;;5122871;27;20132;-63
2023/07/11 02:47:24;;;;;;;6.95;2.35;;;;;;;;;;5123430;27;20094;-65
2023/07/11 02:49:51;;;;;;;7.18;4.03;;;;;;;;;;5123145;27;20214;-65
2023/07/11 02:52:17;;;;;;;5.70;2.10;;;;;;;;;;5121590;27;20048;-63
2023/07/11 02:54:44;;;;;;;6.53;2.58;;;;;;;;;;5123113;27;20081;-66
2023/07/11 02:57:11;;;;;;;4.85;1.80;;;;;;;;;;5122238;27;20512;-66
2023/07/11 02:59:37;;;;;;;5.28;2.00;;;;;;;;;;5123761;27;20051;-64
2023/07/11 03:02:04;;;;;;;5.47;2.15;;;;;;;;;;5114568;27;20051;-65
2023/07/11 03:04:31;;;;;;;3.17;1.80;;;;;;;;;;5109621;27;20082;-65
2023/07/11 03:06:57;;;;;;;5.95;1.77;;;;;;;;;;5125420;27;20520;-63
2023/07/11 03:09:24;;;;;;;6.45;2.22;;;;;;;;;;5125579;27;20568;-63
2023/07/11 03:11:51;;;;;;;3.47;1.92;;;;;;;;;;5122355;27;20094;-65
2023/07/11 03:14:18;;;;;;;4.93;2.25;;;;;;;;;;5109334;27;20091;-62
2023/07/11 03:16:48;;;;;;;4.75;2.47;;;;;;;;;;5126173;27;20113;-63
2023/07/11 03:19:15;;;;;;;5.82;2.50;;;;;;;;;;5125977;27;20051;-65
2023/07/11 03:21:41;;;;;;;5.40;2.53;;;;;;;;;;5126014;27;20128;-65
2023/07/11 03:24:07;;;;;;;8.82;2.70;;;;;;;;;;5126306;27;20059;-63
2023/07/11 03:26:34;;;;;;;7.25;2.47;;;;;;;;;;5125718;27;20523;-64
2023/07/11 03:29:01;;;;;;;5.88;2.42;;;;;;;;;;5126849;27;20056;-65
2023/07/11 03:31:27;;;;;;;2.45;2.22;;;;;;;;;;5125753;27;20052;-65
2023/07/11 03:33:54;;;;;;;5.95;2.15;;;;;;;;;;5106998;27;20589;-63
2023/07/11 03:36:20;;;;;;;3.38;2.40;;;;;;;;;;5125106;27;20052;-64
2023/07/11 03:38:47;;;;;;;4.00;2.42;;;;;;;;;;5125614;27;20572;-65
2023/07/11 03:41:14;;;;;;;4.30;2.63;;;;;;;;;;5125916;27;20166;-65
2023/07/11 03:43:40;;;;;;;6.90;3.00;;;;;;;;;;5127216;27;20053;-65
2023/07/11 03:46:07;;;;;;;4.28;2.53;;;;;;;;;;5123665;27;20066;-65
2023/07/11 03:48:34;;;;;;;9.02;3.03;;;;;;;;;;5126555;27;20055;-65
2023/07/11 03:51:00;;;;;;;6.25;2.95;;;;;;;;;;5124196;27;20048;-62
2023/07/11 03:53:27;;;;;;;6.25;3.30;;;;;;;;;;5125599;27;20055;-63
2023/07/11 03:55:53;;;;;;;4.85;3.22;;;;;;;;;;5124417;27;20062;-64
2023/07/11 03:58:20;;;;;;;4.95;3.28;;;;;;;;;;5125114;27;20062;-64
2023/07/11 04:00:47;;;;;;;6.32;3.13;;;;;;;;;;5125087;27;20149;-64
2023/07/11 04:03:13;;;;;;;5.28;3.15;;;;;;;;;;5114873;27;20105;-63
2023/07/11 04:05:42;;;;;;;5.20;2.80;;;;;;;;;;5119506;27;20050;-65
2023/07/11 04:08:09;;;;;;;4.40;2.83;;;;;;;;;;5124187;27;20056;-64
2023/07/11 04:10:35;;;;;;;3.60;3.25;;;;;;;;;;5117849;27;20152;-63
2023/07/11 04:13:02;;;;;;;5.65;2.67;;;;;;;;;;5113431;27;20056;-65
2023/07/11 04:15:29;;;;;;;6.07;3.42;;;;;;;;;;5116969;27;20441;-64
2023/07/11 04:17:55;;;;;;;4.35;3.08;;;;;;;;;;5105570;27;20055;-64
2023/07/11 04:20:22;;;;;;;4.47;3.33;;;;;;;;;;5127216;27;20837;-63
2023/07/11 04:22:48;;;;;;;10.02;3.88;;;;;;;;;;5120593;27;20082;-64
2023/07/11 04:25:15;;;;;;;4.50;3.53;;;;;;;;;;5116181;27;20056;-61
2023/07/11 04:27:41;;;;;;;6.43;3.60;;;;;;;;;;5121064;27;20513;-64
2023/07/11 04:30:08;;;;;;;7.65;4.13;;;;;;;;;;5125143;27;20131;-64
2023/07/11 04:32:35;;;;;;;5.90;4.03;;;;;;;;;;5125005;27;20547;-64
2023/07/11 04:35:02;;;;;;;5.80;4.30;;;;;;;;;;5124231;27;20062;-62
2023/07/11 04:37:29;;;;;;;7.38;4.38;;;;;;;;;;5125271;27;20505;-65
2023/07/11 04:39:55;;;;;;;6.43;4.15;;;;;;;;;;5125052;27;20064;-64
2023/07/11 04:42:22;;;;;;;7.03;4.88;;;;;;;;;;5125540;27;20090;-64
2023/07/11 04:44:48;;;;;;;6.75;5.40;;;;;;;;;;5125777;27;20085;-64
2023/07/11 04:47:15;;;;;;;7.03;4.70;;;;;;;;;;5124077;27;20062;-65
2023/07/11 04:49:41;;;;;;;9.95;5.50;;;;;;;;;;5123087;27;20060;-63
2023/07/11 04:52:07;;;;;;;8.00;5.45;;;;;;;;;;5123701;27;20056;-63
2023/07/11 04:54:35;;;;;;;7.63;5.65;;;;;;;;;;5126014;27;20588;-62
2023/07/11 04:57:01;;;;;;;10.25;6.45;;;;;;;;;;5117028;27;20565;-62
2023/07/11 04:59:28;;;;;;;9.07;5.45;;;;;;;;;;5125587;27;20653;-62
2023/07/11 05:01:54;;;;;;;12.60;5.78;;;;;;;;;;5123232;27;20063;-63
2023/07/11 05:04:20;;;;;;;10.50;5.47;;;;;;;;;;5123530;27;20052;-63
2023/07/11 05:06:48;;;;;;;6.80;5.43;;;;;;;;;;5125361;27;20050;-62
2023/07/11 05:09:16;;;;;;;8.95;5.55;;;;;;;;;;5124623;27;20138;-62
2023/07/11 05:11:43;;;;;;;9.25;5.63;;;;;;;;;;5123898;27;20071;-62
2023/07/11 05:14:09;;;;;;;11.75;6.53;;;;;;;;;;5104809;27;20056;-63
2023/07/11 05:16:36;;;;;;;11.07;6.35;;;;;;;;;;5104479;28;20723;-61
2023/07/11 05:19:02;;;;;;;16.92;6.65;;;;;;;;;;5103414;28;20058;-59
2023/07/11 05:21:29;;;;;;;9.48;6.32;;;;;;;;;;5105223;27;20688;-61
2023/07/11 05:23:56;;;;;;;7.47;5.95;;;;;;;;;;5122382;27;20572;-63
2023/07/11 05:26:22;;;;;;;9.68;6.70;;;;;;;;;;5103821;27;20063;-63
2023/07/11 05:28:49;;;;;;;8.73;5.55;;;;;;;;;;5104117;28;20107;-62
2023/07/11 05:31:15;;;;;;;9.95;6.57;;;;;;;;;;5111884;27;20100;-60
2023/07/11 05:33:42;;;;;;;13.55;6.00;;;;;;;;;;5115996;27;20059;-63
2023/07/11 05:36:31;;;;;;;9.38;6.15;;;;;;;;;;5124085;27;20109;-62
2023/07/11 05:39:03;;;;;;;9.00;6.60;;;;;;;;;;5107331;27;20518;-62
2023/07/11 05:41:30;;;;;;;12.18;7.20;;;;;;;;;;5111843;27;20139;-63
2023/07/11 05:43:56;;;;;;;6.88;5.72;;;;;;;;;;5124353;27;20514;-63
2023/07/11 05:46:23;;;;;;;8.43;6.30;;;;;;;;;;5108130;27;20052;-63
2023/07/11 05:48:51;;;;;;;10.80;5.93;;;;;;;;;;5123604;27;20079;-63
2023/07/11 05:51:18;;;;;;;11.20;6.47;;;;;;;;;;5119950;27;20078;-65
2023/07/11 05:53:45;;;;;;;9.90;6.43;;;;;;;;;;5111344;27;20055;-65
2023/07/11 05:56:12;;;;;;;8.85;6.03;;;;;;;;;;5122061;27;20600;-62
2023/07/11 05:58:39;;;;;;;10.25;6.85;;;;;;;;;;5121400;27;20083;-64
2023/07/11 06:01:06;;;;;;;10.18;6.45;;;;;;;;;;5122312;27;20062;-64
2023/07/11 06:03:33;;;;;;;11.18;6.32;;;;;;;;;;5103240;27;20559;-64
2023/07/11 06:06:01;;;;;;;7.45;5.50;;;;;;;;;;5123026;27;20052;-64
2023/07/11 06:08:28;;;;;;;12.65;6.97;;;;;;;;;;5106043;27;20393;-64
2023/07/11 06:10:56;;;;;;;10.80;6.43;;;;;;;;;;5124241;27;20125;-66
2023/07/11 06:13:23;;;;;;;8.20;6.20;;;;;;;;;;5123586;27;20062;-65
2023/07/11 06:15:49;;;;;;;8.43;5.85;;;;;;;;;;5122435;27;20138;-67
2023/07/11 06:18:15;;;;;;;7.03;6.32;;;;;;;;;;5123500;27;20055;-67
2023/07/11 06:20:42;;;;;;;9.30;6.15;;;;;;;;;;5120850;27;20445;-65
2023/07/11 06:23:08;;;;;;;6.70;6.00;;;;;;;;;;5137613;27;20410;-64
2023/07/11 06:25:35;;;;;;;11.10;5.90;;;;;;;;;;5143936;27;20134;-67
2023/07/11 06:28:01;;;;;;;6.85;5.15;;;;;;;;;;5144480;27;20588;-65
2023/07/11 06:30:27;;;;;;;11.77;5.40;;;;;;;;;;5120782;27;20124;-65
2023/07/11 06:32:54;;;;;;;7.65;5.40;;;;;;;;;;5124051;27;20086;-66
2023/07/11 06:35:20;;;;;;;10.60;5.25;;;;;;;;;;5122626;27;20047;-64
2023/07/11 06:37:47;;;;;;;5.35;4.68;;;;;;;;;;5139550;27;20043;-64
2023/07/11 06:40:13;;;;;;;8.30;4.22;;;;;;;;;;5143527;27;20138;-65
2023/07/11 06:42:40;;;;;;;10.75;3.90;;;;;;;;;;5132275;27;20553;-65
2023/07/11 06:45:07;;;;;;;10.02;4.05;;;;;;;;;;5121415;27;20138;-62
2023/07/11 06:47:33;;;;;;;4.68;3.70;;;;;;;;;;5135955;27;20052;-63
2023/07/11 06:50:00;;;;;;;4.68;3.50;;;;;;;;;;5114974;27;20058;-62
2023/07/11 06:52:26;;;;;;;10.52;3.80;;;;;;;;;;5120675;27;20056;-63
2023/07/11 06:54:53;;;;;;;5.13;3.22;;;;;;;;;;5116124;27;20056;-62
2023/07/11 06:57:19;;;;;;;4.72;3.13;;;;;;;;;;5112301;27;20048;-64
2023/07/11 06:59:47;;;;;;;4.38;2.28;;;;;;;;;;5115487;27;20078;-63
2023/07/11 07:02:14;;;;;;;4.97;2.10;;;;;;;;;;5124650;27;20073;-65
2023/07/11 07:04:40;;;;;;;5.55;2.60;;;;;;;;;;5121928;27;20047;-64
2023/07/11 07:07:07;;;;;;;7.63;2.95;;;;;;;;;;5121415;27;20059;-63
2023/07/11 07:09:33;;;;;;;10.32;3.95;;;;;;;;;;5119984;27;20548;-64
2023/07/11 07:12:00;;;;;;;4.15;2.22;;;;;;;;;;5119925;27;20136;-62
2023/07/11 07:14:26;;;;;;;4.22;2.45;;;;;;;;;;5122837;27;20293;-63
2023/07/11 07:16:53;;;;;;;4.13;2.17;;;;;;;;;;5108452;27;20527;-63
2023/07/11 07:19:19;;;;;;;4.13;2.25;;;;;;;;;;5121733;27;20055;-63
2023/07/11 07:21:46;;;;;;;3.95;2.17;;;;;;;;;;5117614;27;20063;-63
2023/07/11 07:24:12;;;;;;;2.10;1.90;;;;;;;;;;5119278;27;20059;-63
2023/07/11 07:26:39;;;;;;;5.70;2.22;;;;;;;;;;5123067;27;20089;-61
2023/07/11 07:29:05;;;;;;;5.45;2.72;;;;;;;;;;5122315;27;20048;-62
2023/07/11 07:31:32;;;;;;;5.80;2.28;;;;;;;;;;5122899;27;20063;-63
2023/07/11 07:33:59;;;;;;;3.78;1.95;;;;;;;;;;5122629;27;20051;-63
2023/07/11 07:36:25;;;;;;;7.97;2.53;;;;;;;;;;5123231;27;20051;-62
2023/07/11 07:38:51;;;;;;;7.32;2.08;;;;;;;;;;5120148;27;20619;-62
2023/07/11 07:41:20;;;;;;;5.95;2.33;;;;;;;;;;5122864;27;20051;-62
2023/07/11 07:43:46;;;;;;;8.50;2.38;;;;;;;;;;5122966;27;20494;-64
2023/07/11 07:46:14;;;;;;;7.05;3.03;;;;;;;;;;5122945;27;20132;-63
2023/07/11 07:48:41;;;;;;;4.88;2.00;;;;;;;;;;5126414;27;20048;-63
2023/07/11 07:51:09;;;;;;;4.93;2.42;;;;;;;;;;5126914;27;20075;-61
2023/07/11 07:53:36;;;;;;;4.53;1.85;;;;;;;;;;5126168;27;20135;-62
2023/07/11 07:56:06;;;;;;;4.90;1.77;;;;;;;;;;5107635;27;20055;-62
2023/07/11 07:58:33;;;;;;;4.93;2.65;;;;;;;;;;5119572;27;20091;-62
2023/07/11 08:01:05;;;;;;;6.28;2.10;;;;;;;;;;5119524;27;20153;-58
2023/07/11 08:03:33;;;;;;;5.68;1.90;;;;;;;;;;5130883;27;20126;-61
2023/07/11 08:06:00;;;;;;;4.32;1.63;;;;;;;;;;5130406;27;20052;-63
2023/07/11 08:08:41;;;;;;;3.78;1.75;;;;;;;;;;5121036;27;20540;-63
2023/07/11 08:11:08;;;;;;;3.85;1.80;;;;;;;;;;5123192;27;20063;-63
2023/07/11 08:13:35;;;;;;;5.32;2.00;;;;;;;;;;5110755;27;20079;-62
2023/07/11 08:16:18;;;;;;;4.00;2.55;;;;;;;;;;5126651;27;20139;-63
2023/07/11 08:18:58;;;;;;;3.33;2.13;;;;;;;;;;5125923;27;20141;-61
2023/07/11 08:21:25;;;;;;;3.92;1.70;;;;;;;;;;5125352;27;20059;-62
2023/07/11 08:23:52;;;;;;;4.57;1.95;;;;;;;;;;5124872;27;20078;-61
2023/07/11 08:26:20;;;;;;;6.93;2.13;;;;;;;;;;5116779;27;20052;-62
2023/07/11 08:28:47;;;;;;;4.63;1.52;;;;;;;;;;5125071;27;20155;-63
2023/07/11 08:31:14;;;;;;;6.72;2.08;;;;;;;;;;5125128;27;20487;-63
2023/07/11 08:33:40;;;;;;;5.15;1.98;;;;;;;;;;5145834;27;20055;-62
2023/07/11 08:36:07;;;;;;;6.68;1.80;;;;;;;;;;5126295;27;20047;-62
2023/07/11 08:38:33;;;;;;;4.18;1.67;;;;;;;;;;5144194;27;20058;-62
2023/07/11 08:41:09;;;;;;;7.97;1.55;;;;;;;;;;5141225;27;20105;-63
2023/07/11 08:43:35;;;;;;;4.05;2.05;;;;;;;;;;5124198;27;20044;-63
2023/07/11 08:46:05;;;;;;;9.43;2.08;;;;;;;;;;5118666;27;20061;-61
2023/07/11 08:48:42;;;;;;;6.43;1.85;;;;;;;;;;5125993;27;20054;-61
2023/07/11 08:51:12;;;;;;;4.13;1.75;;;;;;;;;;5135726;27;20062;-60
2023/07/11 08:53:47;;;;;;;4.38;1.92;;;;;;;;;;5134753;27;20651;-60
2023/07/11 08:56:17;;;;;;;5.53;1.80;;;;;;;;;;5124728;27;20055;-61
2023/07/11 08:58:43;;;;;;;9.27;2.47;;;;;;;;;;5132269;27;20468;-62
2023/07/11 09:01:29;;;;;;;4.97;1.73;;;;;;;;;;5104201;28;20113;-61
2023/07/11 09:03:57;;;;;;;2.55;1.92;;;;;;;;;;5120587;27;20051;-62
2023/07/11 09:06:27;;;;;;;4.93;1.70;;;;;;;;;;5121992;27;20056;-61
2023/07/11 09:08:54;;;;;;;3.33;1.95;;;;;;;;;;5142786;27;20059;-61
2023/07/11 09:11:27;;;;;;;6.03;1.83;;;;;;;;;;5123057;27;20048;-61
2023/07/11 09:13:59;;;;;;;5.53;1.70;;;;;;;;;;5123672;27;20531;-61
2023/07/11 09:16:36;;;;;;;8.57;1.80;;;;;;;;;;5123503;27;20131;-61
2023/07/11 09:19:22;;;;;;;4.03;1.75;;;;;;;;;;5115262;27;20135;-61
2023/07/11 09:21:54;;;;;;;4.88;2.35;;;;;;;;;;5113946;27;20478;-61
2023/07/11 09:24:39;;;;;;;3.75;1.83;;;;;;;;;;5119160;27;20484;-60
2023/07/11 09:27:24;;;;;;;5.72;2.10;;;;;;;;;;5124916;27;20564;-61
2023/07/11 09:29:51;;;;;;;2.65;1.48;;;;;;;;;;5124141;27;20139;-62
2023/07/11 09:32:18;;;;;;;3.80;1.77;;;;;;;;;;5122543;27;20139;-62
2023/07/11 09:34:47;;;;;;;9.88;2.50;;;;;;;;;;5121032;27;20055;-62
2023/07/11 09:37:23;;;;;;;9.07;2.10;;;;;;;;;;5114417;27;20155;-62
2023/07/11 09:39:53;;;;;;;4.95;1.95;;;;;;;;;;5119426;27;20047;-61
2023/07/11 09:42:20;;;;;;;6.88;2.47;;;;;;;;;;5108557;27;20051;-62
2023/07/11 09:44:59;;;;;;;13.80;2.30;;;;;;;;;;5123317;27;20097;-62
2023/07/11 09:47:32;;;;;;;3.92;2.30;;;;;;;;;;5122693;27;20246;-62
2023/07/11 09:50:00;;;;;;;7.50;2.60;;;;;;;;;;5115290;27;20681;-63
2023/07/11 09:52:27;;;;;;;4.43;2.15;;;;;;;;;;5122555;27;20052;-62
2023/07/11 09:54:54;;;;;;;5.97;1.92;;;;;;;;;;5123535;27;20059;-62
2023/07/11 09:57:34;;;;;;;4.72;2.15;;;;;;;;;;5116977;27;20052;-62
2023/07/11 10:00:03;;;;;;;5.55;1.95;;;;;;;;;;5121869;27;20059;-62
2023/07/11 10:02:49;;;;;;;5.88;2.40;;;;;;;;;;5115182;27;20536;-62
2023/07/11 10:05:16;;;;;;;4.85;1.83;;;;;;;;;;5123160;27;20606;-62
2023/07/11 10:07:43;;;;;;;5.82;2.17;;;;;;;;;;5122715;27;20048;-62
2023/07/11 10:10:13;;;;;;;5.85;3.00;;;;;;;;;;5121090;27;20099;-61
2023/07/11 10:12:42;;;;;;;2.70;1.70;;;;;;;;;;5102487;27;20054;-62
2023/07/11 10:15:15;;;;;;;6.60;2.08;;;;;;;;;;5122272;27;20316;-62
2023/07/11 10:17:42;;;;;;;5.90;1.88;;;;;;;;;;5116172;27;20055;-63
2023/07/11 10:20:14;;;;;;;7.82;2.13;;;;;;;;;;5122972;27;20051;-62
2023/07/11 10:22:47;;;;;;;6.95;1.92;;;;;;;;;;5123402;27;20048;-62
2023/07/11 10:25:16;;;;;;;6.78;1.80;;;;;;;;;;5112787;27;20243;-62
2023/07/11 10:27:45;;;;;;;6.55;2.00;;;;;;;;;;5120207;27;20052;-62
2023/07/11 10:30:17;;;;;;;7.20;2.10;;;;;;;;;;5122941;27;20387;-61
2023/07/11 10:32:47;;;;;;;6.00;1.90;;;;;;;;;;5122959;27;20059;-61
2023/07/11 10:35:19;;;;;;;4.20;1.70;;;;;;;;;;5123017;27;20062;-60
2023/07/11 10:37:48;;;;;;;2.45;1.40;;;;;;;;;;5121981;27;20480;-61
2023/07/11 10:40:24;;;;;;;5.40;2.15;;;;;;;;;;5123836;27;20055;-61
2023/07/11 10:42:56;;;;;;;4.18;2.20;;;;;;;;;;5123080;27;20585;-61
2023/07/11 10:45:27;;;;;;;7.97;2.33;;;;;;;;;;5122524;27;20047;-61
2023/07/11 10:48:01;;;;;;;4.72;2.08;;;;;;;;;;5120981;27;20164;-61
2023/07/11 10:50:27;;;;;;;4.63;1.80;;;;;;;;;;5106726;27;20107;-61
2023/07/11 10:52:56;;;;;;;4.53;2.03;;;;;;;;;;5114181;27;20302;-61
2023/07/11 10:55:26;;;;;;;7.50;1.80;;;;;;;;;;5143103;27;20138;-61
2023/07/11 10:57:53;;;;;;;5.93;2.00;;;;;;;;;;5144112;27;20051;-62
2023/07/11 11:00:21;;;;;;;5.25;2.22;;;;;;;;;;5125325;27;20058;-61
2023/07/11 11:02:51;;;;;;;3.67;2.03;;;;;;;;;;5123862;27;20147;-62
2023/07/11 11:05:28;;;;;;;12.55;3.15;;;;;;;;;;5121549;27;20121;-62
2023/07/11 11:07:57;;;;;;;5.53;1.90;;;;;;;;;;5123728;27;20101;-62
2023/07/11 11:10:36;;;;;;;6.80;2.30;;;;;;;;;;5121574;27;20585;-62
2023/07/11 11:13:05;;;;;;;4.70;1.98;;;;;;;;;;5123335;27;20485;-62
2023/07/11 11:15:36;;;;;;;4.93;1.90;;;;;;;;;;5122373;27;20592;-61
2023/07/11 11:18:33;;;;;;;7.55;1.80;;;;;;;;;;5111709;27;20060;-61
2023/07/11 11:21:18;;;;;;;4.85;1.83;;;;;;;;;;5047085;28;20591;-62
2023/07/11 11:24:07;;;;;;;6.15;2.10;;;;;;;;;;5056743;28;20053;-62
2023/07/11 11:26:41;;;;;;;8.52;1.90;;;;;;;;;;5042771;28;20068;-62
2023/07/11 11:29:16;;;;;;;4.07;2.30;;;;;;;;;;5038284;28;20056;-62
2023/07/11 11:32:03;;;;;;;7.05;1.95;;;;;;;;;;5062452;28;20067;-61
2023/07/11 11:34:48;;;;;;;7.60;2.22;;;;;;;;;;5062158;28;20060;-61
2023/07/11 11:37:43;;;;;;;3.33;1.77;;;;;;;;;;5042501;28;20053;-61
2023/07/11 11:40:12;;;;;;;4.57;2.00;;;;;;;;;;5050266;28;20059;-61
2023/07/11 11:42:41;;;;;;;5.82;2.25;;;;;;;;;;5061625;28;20581;-61
2023/07/11 11:45:15;;;;;;;4.63;2.15;;;;;;;;;;5048546;28;20058;-61
2023/07/11 11:47:46;;;;;;;4.90;2.40;;;;;;;;;;5056348;28;20128;-61
2023/07/11 11:50:17;;;;;;;6.75;2.10;;;;;;;;;;5058514;28;20057;-61
2023/07/11 11:52:54;;;;;;;4.30;2.03;;;;;;;;;;5059750;28;20088;-62
2023/07/11 11:55:34;;;;;;;5.82;2.33;;;;;;;;;;5052379;28;20056;-61
2023/07/11 11:58:01;;;;;;;13.80;2.78;;;;;;;;;;5093937;27;20051;-61
2023/07/11 12:00:37;;;;;;;7.60;2.50;;;;;;;;;;5125256;27;20087;-62
2023/07/11 12:03:05;;;;;;;8.23;2.17;;;;;;;;;;5125144;27;20168;-62
2023/07/11 12:05:32;;;;;;;5.78;2.10;;;;;;;;;;5125432;27;21018;-60
2023/07/11 12:08:17;;;;;;;3.38;2.20;;;;;;;;;;5126044;27;20047;-61
2023/07/11 12:11:03;;;;;;;7.00;2.67;;;;;;;;;;5127541;27;20048;-62
2023/07/11 12:13:30;;;;;;;4.93;2.15;;;;;;;;;;5126194;27;20067;-61
2023/07/11 12:16:01;;;;;;;4.75;1.95;;;;;;;;;;5125607;27;20464;-61
2023/07/11 12:18:28;;;;;;;3.67;2.25;;;;;;;;;;5131100;27;20108;-60
2023/07/11 12:21:16;;;;;;;5.10;2.35;;;;;;;;;;5126519;27;20075;-61
2023/07/11 12:23:43;;;;;;;5.97;2.60;;;;;;;;;;5132906;27;20516;-61
2023/07/11 12:26:30;;;;;;;7.63;2.22;;;;;;;;;;5141687;27;20056;-62
2023/07/11 12:29:16;;;;;;;5.03;2.80;;;;;;;;;;5125709;27;20057;-61
2023/07/11 12:31:43;;;;;;;8.60;2.95;;;;;;;;;;5104536;27;20052;-61
2023/07/11 12:34:13;;;;;;;7.28;2.92;;;;;;;;;;5116077;27;20095;-62
2023/07/11 12:36:51;;;;;;;10.52;2.78;;;;;;;;;;5124922;27;20159;-60
2023/07/11 12:39:22;;;;;;;5.75;2.45;;;;;;;;;;5124232;27;20056;-62
2023/07/11 12:42:05;;;;;;;17.02;3.95;;;;;;;;;;5125133;27;20113;-61
2023/07/11 12:44:33;;;;;;;5.85;2.83;;;;;;;;;;5119651;27;20095;-58
2023/07/11 12:47:02;;;;;;;4.75;2.10;;;;;;;;;;5124262;27;20051;-61
2023/07/11 12:49:29;;;;;;;5.72;1.83;;;;;;;;;;5106872;27;20058;-61
2023/07/11 12:52:05;;;;;;;5.15;2.33;;;;;;;;;;5125001;27;20093;-61
2023/07/11 12:54:32;;;;;;;6.90;2.53;;;;;;;;;;5129410;27;20536;-60
2023/07/11 12:56:59;;;;;;;6.32;2.60;;;;;;;;;;5124692;27;20055;-61
2023/07/11 12:59:27;;;;;;;6.40;2.67;;;;;;;;;;5125302;27;20071;-59
2023/07/11 13:01:56;;;;;;;4.75;2.20;;;;;;;;;;5124120;27;20065;-61
2023/07/11 13:04:24;;;;;;;6.68;2.28;;;;;;;;;;5124987;27;20055;-60
2023/07/11 13:06:54;;;;;;;5.50;2.60;;;;;;;;;;5125074;27;20502;-61
2023/07/11 13:09:22;;;;;;;5.55;2.10;;;;;;;;;;5124008;27;20556;-60
2023/07/11 13:11:48;;;;;;;13.07;2.60;;;;;;;;;;5119763;27;20055;-60
2023/07/11 13:14:15;;;;;;;6.57;2.17;;;;;;;;;;5124330;27;20055;-60
2023/07/11 13:16:42;;;;;;;7.20;2.47;;;;;;;;;;5122339;27;20153;-61
2023/07/11 13:19:13;;;;;;;8.65;2.10;;;;;;;;;;5125165;27;20516;-63
2023/07/11 13:21:44;;;;;;;4.50;2.40;;;;;;;;;;5117101;27;20055;-61
2023/07/11 13:24:13;;;;;;;4.35;2.47;;;;;;;;;;5114103;27;20059;-60
2023/07/11 13:26:39;;;;;;;4.75;2.28;;;;;;;;;;5123289;27;20524;-63
2023/07/11 13:29:09;;;;;;;6.43;2.90;;;;;;;;;;5123754;27;20552;-61
2023/07/11 13:31:36;;;;;;;10.60;2.50;;;;;;;;;;5121889;27;20521;-61
2023/07/11 13:34:10;;;;;;;5.80;2.60;;;;;;;;;;5122110;27;20164;-62
2023/07/11 13:36:37;;;;;;;4.63;2.22;;;;;;;;;;5123199;27;20062;-61
2023/07/11 13:39:10;;;;;;;5.90;2.67;;;;;;;;;;5124498;27;20044;-61
2023/07/11 13:41:39;;;;;;;4.40;2.08;;;;;;;;;;5112519;27;20055;-60
2023/07/11 13:44:13;;;;;;;5.25;2.10;;;;;;;;;;5124408;27;20074;-61
2023/07/11 13:46:40;;;;;;;3.75;2.00;;;;;;;;;;5104117;27;20512;-61
2023/07/11 13:49:08;;;;;;;6.20;2.53;;;;;;;;;;5121953;27;20140;-61
2023/07/11 13:51:36;;;;;;;4.85;1.75;;;;;;;;;;5123074;27;20050;-61
2023/07/11 13:54:06;;;;;;;5.97;2.45;;;;;;;;;;5123318;27;20659;-59
2023/07/11 13:56:33;;;;;;;3.28;2.05;;;;;;;;;;5124014;27;20143;-60
2023/07/11 13:58:59;;;;;;;3.88;1.90;;;;;;;;;;5123182;27;20424;-62
2023/07/11 14:01:28;;;;;;;5.78;2.17;;;;;;;;;;5122873;27;20594;-61
2023/07/11 14:03:57;;;;;;;6.10;2.10;;;;;;;;;;5120897;27;20171;-62
2023/07/11 14:06:24;;;;;;;8.52;2.35;;;;;;;;;;5118363;27;20050;-61
2023/07/11 14:08:51;;;;;;;4.97;1.65;;;;;;;;;;5113759;27;20055;-61
2023/07/11 14:11:24;;;;;;;2.65;1.85;;;;;;;;;;5121689;27;20062;-61
2023/07/11 14:13:51;;;;;;;5.03;1.85;;;;;;;;;;5123179;27;20081;-61
2023/07/11 14:16:18;;;;;;;2.63;2.00;;;;;;;;;;5121340;27;20163;-62
2023/07/11 14:18:44;;;;;;;3.97;1.95;;;;;;;;;;5123691;27;20055;-61
2023/07/11 14:21:14;;;;;;;5.85;2.65;;;;;;;;;;5122833;27;20062;-61
2023/07/11 14:23:42;;;;;;;3.17;1.83;;;;;;;;;;5123628;27;20051;-62
2023/07/11 14:26:08;;;;;;;5.78;2.08;;;;;;;;;;5093084;28;20052;-60
2023/07/11 14:28:35;;;;;;;4.80;1.80;;;;;;;;;;5122440;27;20186;-62
2023/07/11 14:31:09;;;;;;;3.90;2.13;;;;;;;;;;5122399;27;20538;-59
2023/07/11 14:33:36;;;;;;;5.15;1.70;;;;;;;;;;5105032;27;20065;-61
2023/07/11 14:36:03;;;;;;;8.55;2.45;;;;;;;;;;5104614;27;20052;-61
2023/07/11 14:38:29;;;;;;;6.00;1.80;;;;;;;;;;5117382;27;20533;-61
2023/07/11 14:40:56;;;;;;;9.13;2.28;;;;;;;;;;5122674;27;20056;-61
2023/07/11 14:43:24;;;;;;;4.97;2.17;;;;;;;;;;5121936;27;20052;-61
2023/07/11 14:45:51;;;;;;;6.28;1.95;;;;;;;;;;5125647;27;20051;-61
2023/07/11 14:48:18;;;;;;;5.50;1.73;;;;;;;;;;5122432;27;20139;-61
2023/07/11 14:50:46;;;;;;;11.35;2.38;;;;;;;;;;5122872;27;20043;-61